Augusta, Georgia
Current Conditions -  °F | °C
As of 2:53 AM on Monday 26 Jan 2015 (Local Time) from KDNL Reporting Station
Clear Clear  
Wind Chill: 46°   Ceiling: Unl
Heat Index: 49°   Visibility: 10mi
Dew Point: 40°   Wind: 7mph
Humidity: 71%   Direction: NA
Pressure: 29.72"   Gusts: NA
Location:  33.48°N, 81.97°W
Report Text: KDNL 260753Z AUTO VRB06KT 10SM CLR 09/04 A2972 RMK AO2 SLP063 T00940044
Loading
Personal Weather Stations






























Interactive Weather Map New forecast layout! Learn more

10-Day Weather Forecast

Advertisements
Track Severe Weather on mobile